createdAt,value
2022-07-25T00:00:32.346Z,22.91
2022-07-25T00:01:32.472Z,22.96
2022-07-25T00:02:32.192Z,22.98
2022-07-25T00:03:32.124Z,22.93
2022-07-25T00:04:32.105Z,22.94
2022-07-25T00:05:37.354Z,22.90
2022-07-25T00:06:31.906Z,22.88
2022-07-25T00:07:31.835Z,22.91
2022-07-25T00:08:31.754Z,22.94
2022-07-25T00:09:31.685Z,22.87
2022-07-25T00:10:31.608Z,22.94
2022-07-25T00:11:31.539Z,22.98
2022-07-25T00:12:31.466Z,22.93
2022-07-25T00:13:31.389Z,22.84
2022-07-25T00:14:31.313Z,22.87
2022-07-25T00:15:31.246Z,22.87
2022-07-25T00:16:31.229Z,22.88
2022-07-25T00:17:31.097Z,22.93
2022-07-25T00:18:31.022Z,22.90
2022-07-25T00:19:30.951Z,22.87
2022-07-25T00:20:30.879Z,22.85
2022-07-25T00:21:30.810Z,22.94
2022-07-25T00:22:30.730Z,22.83
2022-07-25T00:23:30.665Z,22.78
2022-07-25T00:24:30.584Z,22.81
2022-07-25T00:25:30.522Z,22.78
2022-07-25T00:26:30.437Z,22.73
2022-07-25T00:27:30.369Z,22.65
2022-07-25T00:28:30.289Z,22.59
2022-07-25T00:29:30.219Z,22.60
2022-07-25T00:30:30.149Z,22.60
2022-07-25T00:31:30.130Z,22.48
2022-07-25T00:32:30.001Z,22.48
2022-07-25T00:33:29.928Z,22.50
2022-07-25T00:34:29.856Z,22.39
2022-07-25T00:35:29.781Z,22.53
2022-07-25T00:36:29.705Z,22.47
2022-07-25T00:37:29.638Z,22.54
2022-07-25T00:38:29.562Z,22.47
2022-07-25T00:39:29.490Z,22.50
2022-07-25T00:40:29.413Z,22.50
2022-07-25T00:41:29.338Z,22.51
2022-07-25T00:42:29.267Z,22.47
2022-07-25T00:43:29.199Z,22.51
2022-07-25T00:44:29.122Z,22.45
2022-07-25T00:45:29.048Z,22.50
2022-07-25T00:46:29.033Z,22.48
2022-07-25T00:47:28.906Z,22.44
2022-07-25T00:48:28.895Z,22.59
2022-07-25T00:49:28.758Z,22.60
2022-07-25T00:50:28.679Z,22.62
2022-07-25T00:51:28.606Z,22.55
2022-07-25T00:52:35.722Z,22.57
2022-07-25T00:54:32.406Z,22.54
2022-07-25T00:55:32.323Z,22.57
2022-07-25T00:57:36.189Z,22.59
2022-07-25T00:58:36.087Z,22.47
2022-07-25T00:59:36.110Z,22.62
2022-07-25T01:00:35.938Z,22.51
2022-07-25T01:01:35.907Z,22.50
2022-07-25T01:02:35.849Z,22.50
2022-07-25T01:03:35.718Z,22.47
2022-07-25T01:04:35.646Z,22.54
2022-07-25T01:05:35.571Z,22.62
2022-07-25T01:06:35.495Z,22.65
2022-07-25T01:07:35.423Z,22.65
2022-07-25T01:08:35.351Z,22.63
2022-07-25T01:09:35.277Z,22.60
2022-07-25T01:10:35.233Z,22.65
2022-07-25T01:11:35.132Z,22.60
2022-07-25T01:12:35.057Z,22.69
2022-07-25T01:13:34.980Z,22.62
2022-07-25T01:14:34.908Z,22.69
2022-07-25T01:15:34.870Z,22.68
2022-07-25T01:16:34.766Z,22.72
2022-07-25T01:17:34.689Z,22.68
2022-07-25T01:18:34.619Z,22.78
2022-07-25T01:19:34.539Z,22.78
2022-07-25T01:20:34.473Z,22.78
2022-07-25T01:21:34.399Z,22.83
2022-07-25T01:22:34.315Z,22.80
2022-07-25T01:23:34.260Z,22.81
2022-07-25T01:24:34.174Z,22.78
2022-07-25T01:25:34.109Z,22.81
2022-07-25T01:26:34.030Z,22.68
2022-07-25T01:27:33.956Z,22.76
2022-07-25T01:28:33.878Z,22.73
2022-07-25T01:29:33.806Z,22.81
2022-07-25T01:30:33.737Z,22.76
2022-07-25T01:31:33.712Z,22.80
2022-07-25T01:32:33.588Z,22.78
2022-07-25T01:33:33.511Z,22.84
2022-07-25T01:34:33.439Z,22.81
2022-07-25T01:35:33.362Z,22.84
2022-07-25T01:36:33.295Z,22.81
2022-07-25T01:37:33.220Z,22.83
2022-07-25T01:38:33.145Z,22.81
2022-07-25T01:39:33.074Z,22.76
2022-07-25T01:40:33.002Z,22.84
2022-07-25T01:41:32.924Z,22.80
2022-07-25T01:42:32.851Z,22.78
2022-07-25T01:43:32.781Z,22.80
2022-07-25T01:44:32.706Z,22.81
2022-07-25T01:45:32.630Z,22.72
2022-07-25T01:46:32.657Z,22.70
2022-07-25T01:47:32.488Z,22.73
2022-07-25T01:48:32.423Z,22.69
2022-07-25T01:49:32.346Z,22.75
2022-07-25T01:50:32.267Z,22.75
2022-07-25T01:51:32.193Z,22.75
2022-07-25T01:52:32.119Z,22.69
2022-07-25T01:53:32.043Z,22.69
2022-07-25T01:54:31.970Z,22.70
2022-07-25T01:55:31.901Z,22.73
2022-07-25T01:56:32.085Z,22.72
2022-07-25T01:57:31.751Z,22.72
2022-07-25T01:58:31.675Z,22.76
2022-07-25T01:59:31.606Z,22.68
2022-07-25T02:00:31.535Z,22.68
2022-07-25T02:01:31.506Z,22.70
2022-07-25T02:02:31.381Z,22.70
2022-07-25T02:03:31.317Z,22.69
2022-07-25T02:04:31.305Z,22.60
2022-07-25T02:05:31.169Z,22.63
2022-07-25T02:06:31.085Z,22.63
2022-07-25T02:07:31.022Z,22.65
2022-07-25T02:08:30.939Z,22.65
2022-07-25T02:09:30.871Z,22.70
2022-07-25T02:10:30.793Z,22.69
2022-07-25T02:11:30.725Z,22.69
2022-07-25T02:12:30.648Z,22.72
2022-07-25T02:13:30.576Z,22.70
2022-07-25T02:14:30.505Z,22.70
2022-07-25T02:15:30.429Z,22.68
2022-07-25T02:16:30.397Z,22.72
2022-07-25T02:17:30.382Z,22.68
2022-07-25T02:18:30.209Z,22.72
2022-07-25T02:19:30.139Z,22.68
2022-07-25T02:20:30.057Z,22.59
2022-07-25T02:21:29.987Z,22.62
2022-07-25T02:22:29.913Z,22.60
2022-07-25T02:23:29.840Z,22.62
2022-07-25T02:24:29.773Z,22.60
2022-07-25T02:25:29.695Z,22.54
2022-07-25T02:26:29.625Z,22.50
2022-07-25T02:27:29.553Z,22.50
2022-07-25T02:28:29.475Z,22.44
2022-07-25T02:29:29.398Z,22.51
2022-07-25T02:30:29.369Z,22.48
2022-07-25T02:31:29.254Z,22.50
2022-07-25T02:32:29.180Z,22.44
2022-07-25T02:33:29.105Z,22.50
2022-07-25T02:34:29.028Z,22.53
2022-07-25T02:35:28.956Z,22.47
2022-07-25T02:36:28.881Z,22.48
2022-07-25T02:37:28.809Z,22.43
2022-07-25T02:38:28.733Z,22.47
2022-07-25T02:39:28.658Z,22.43
2022-07-25T02:40:28.592Z,22.50
2022-07-25T02:41:28.516Z,22.43
2022-07-25T02:42:28.442Z,22.35
2022-07-25T02:43:28.374Z,22.36
2022-07-25T02:44:28.294Z,22.41
2022-07-25T02:45:28.221Z,22.36
2022-07-25T02:46:28.229Z,22.36
2022-07-25T02:47:28.074Z,22.33
2022-07-25T02:48:28.080Z,22.35
2022-07-25T02:49:27.926Z,22.38
2022-07-25T02:50:27.856Z,22.43
2022-07-25T02:51:27.775Z,22.33
2022-07-25T02:52:27.705Z,22.39
2022-07-25T02:53:47.207Z,22.41
2022-07-25T02:54:27.558Z,22.39
2022-07-25T02:55:27.489Z,22.43
2022-07-25T02:56:29.726Z,22.43
2022-07-25T02:57:27.333Z,22.39
2022-07-25T02:58:27.266Z,22.45
2022-07-25T02:59:32.079Z,22.45
2022-07-25T03:00:27.112Z,22.41
2022-07-25T03:01:27.167Z,22.44
2022-07-25T03:02:26.962Z,22.41
2022-07-25T03:03:26.899Z,22.33
2022-07-25T03:04:26.917Z,22.33
2022-07-25T03:05:26.747Z,22.33
2022-07-25T03:06:26.671Z,22.33
2022-07-25T03:07:26.595Z,22.29
2022-07-25T03:08:26.527Z,22.32
2022-07-25T03:09:26.449Z,22.32
2022-07-25T03:10:26.376Z,22.33
2022-07-25T03:11:26.310Z,22.32
2022-07-25T03:12:26.228Z,22.33
2022-07-25T03:13:26.157Z,22.28
2022-07-25T03:14:26.090Z,22.14
2022-07-25T03:15:26.006Z,22.26
2022-07-25T03:16:25.996Z,22.15
2022-07-25T03:17:25.866Z,22.22
2022-07-25T03:18:25.785Z,22.13
2022-07-25T03:19:25.714Z,22.23
2022-07-25T03:20:25.637Z,22.15
2022-07-25T03:21:25.568Z,22.10
2022-07-25T03:22:25.490Z,22.07
2022-07-25T03:23:25.421Z,22.08
2022-07-25T03:24:25.343Z,22.00
2022-07-25T03:25:25.268Z,22.02
2022-07-25T03:26:25.202Z,22.00
2022-07-25T03:27:25.129Z,21.95
2022-07-25T03:28:25.054Z,21.98
2022-07-25T03:29:24.978Z,22.00
2022-07-25T03:30:24.901Z,21.96
2022-07-25T03:31:24.883Z,21.99
2022-07-25T03:32:24.756Z,21.99
2022-07-25T03:33:24.680Z,21.96
2022-07-25T03:34:24.605Z,22.04
2022-07-25T03:35:24.528Z,21.98
2022-07-25T03:36:24.458Z,21.98
2022-07-25T03:37:24.385Z,22.02
2022-07-25T03:38:24.314Z,22.02
2022-07-25T03:39:24.236Z,21.95
2022-07-25T03:40:24.167Z,22.04
2022-07-25T03:41:24.086Z,22.02
2022-07-25T03:42:26.739Z,22.06
2022-07-25T03:43:23.936Z,22.08
2022-07-25T03:44:23.870Z,22.08
2022-07-25T03:45:23.791Z,22.00
2022-07-25T03:46:23.752Z,22.06
2022-07-25T03:47:23.653Z,22.08
2022-07-25T03:48:23.634Z,22.07
2022-07-25T03:49:23.496Z,22.00
2022-07-25T03:50:23.424Z,22.06
2022-07-25T03:51:23.348Z,22.06
2022-07-25T03:52:23.281Z,22.02
2022-07-25T03:53:23.203Z,22.07
2022-07-25T03:54:23.125Z,22.04
2022-07-25T03:55:23.057Z,21.93
2022-07-25T03:56:22.978Z,21.89
2022-07-25T03:57:22.910Z,21.93
2022-07-25T03:58:22.831Z,21.83
2022-07-25T03:59:22.756Z,21.80
2022-07-25T04:00:22.687Z,21.83
2022-07-25T04:01:22.746Z,21.79
2022-07-25T04:02:22.613Z,21.85
2022-07-25T04:03:22.459Z,21.79
2022-07-25T04:04:22.383Z,21.73
2022-07-25T04:05:22.310Z,21.75
2022-07-25T04:06:22.238Z,21.75
2022-07-25T04:07:22.168Z,21.80
2022-07-25T04:08:22.095Z,21.83
2022-07-25T04:09:22.019Z,21.80
2022-07-25T04:10:21.937Z,21.79
2022-07-25T04:11:21.873Z,21.76
2022-07-25T04:12:21.797Z,21.75
2022-07-25T04:13:21.721Z,21.72
2022-07-25T04:14:21.646Z,21.66
2022-07-25T04:15:21.576Z,21.70
2022-07-25T04:16:22.496Z,21.69
2022-07-25T04:17:21.510Z,21.72
2022-07-25T04:18:22.320Z,21.62
2022-07-25T04:19:21.280Z,21.72
2022-07-25T04:20:21.201Z,21.69
2022-07-25T04:21:21.133Z,21.69
2022-07-25T04:22:21.053Z,21.72
2022-07-25T04:23:20.981Z,21.66
2022-07-25T04:24:20.906Z,21.61
2022-07-25T04:25:20.828Z,21.70
2022-07-25T04:26:20.759Z,21.69
2022-07-25T04:27:20.688Z,21.73
2022-07-25T04:28:20.611Z,21.76
2022-07-25T04:29:20.536Z,21.73
2022-07-25T04:30:23.930Z,21.72
2022-07-25T04:31:20.415Z,21.70
2022-07-25T04:32:23.559Z,21.76
2022-07-25T04:33:20.234Z,21.77
2022-07-25T04:34:20.163Z,21.79
2022-07-25T04:35:20.091Z,21.72
2022-07-25T04:36:20.017Z,21.76
2022-07-25T04:37:19.949Z,21.80
2022-07-25T04:38:19.870Z,21.76
2022-07-25T04:39:19.791Z,21.76
2022-07-25T04:40:19.719Z,21.77
2022-07-25T04:41:19.645Z,21.77
2022-07-25T04:42:19.571Z,21.79
2022-07-25T04:43:19.495Z,21.83
2022-07-25T04:44:19.420Z,21.89
2022-07-25T04:45:19.420Z,21.91
2022-07-25T04:46:19.362Z,21.89
2022-07-25T04:47:19.197Z,21.89
2022-07-25T04:48:19.129Z,21.93
2022-07-25T04:49:19.128Z,21.83
2022-07-25T04:50:24.493Z,21.92
2022-07-25T04:51:18.905Z,21.85
2022-07-25T04:52:18.826Z,21.96
2022-07-25T04:53:18.755Z,21.95
2022-07-25T04:54:18.683Z,21.99
2022-07-25T04:55:18.609Z,22.07
2022-07-25T04:56:18.536Z,22.07
2022-07-25T04:57:18.464Z,22.08
2022-07-25T04:58:18.390Z,22.04
2022-07-25T04:59:18.312Z,22.11
2022-07-25T05:00:18.237Z,22.06
2022-07-25T05:01:18.226Z,22.10
2022-07-25T05:02:18.133Z,22.02
2022-07-25T05:03:18.016Z,22.11
2022-07-25T05:04:17.947Z,22.04
2022-07-25T05:05:21.718Z,22.08
2022-07-25T05:06:17.794Z,22.17
2022-07-25T05:07:17.715Z,22.20
2022-07-25T05:08:17.644Z,22.17
2022-07-25T05:09:17.572Z,22.18
2022-07-25T05:10:17.496Z,22.13
2022-07-25T05:11:17.420Z,22.23
2022-07-25T05:12:17.350Z,22.23
2022-07-25T05:13:17.273Z,22.26
2022-07-25T05:14:17.210Z,22.32
2022-07-25T05:15:17.131Z,22.33
2022-07-25T05:16:17.156Z,22.36
2022-07-25T05:17:16.979Z,22.35
2022-07-25T05:18:16.916Z,22.33
2022-07-25T05:19:16.841Z,22.43
2022-07-25T05:20:16.761Z,22.39
2022-07-25T05:21:16.686Z,22.45
2022-07-25T05:22:16.614Z,22.51
2022-07-25T05:23:16.546Z,22.45
2022-07-25T05:24:16.468Z,22.38
2022-07-25T05:25:16.397Z,22.41
2022-07-25T05:26:16.314Z,22.39
2022-07-25T05:27:16.240Z,22.44
2022-07-25T05:28:16.183Z,22.44
2022-07-25T05:29:16.100Z,22.50
2022-07-25T05:30:16.018Z,22.54
2022-07-25T05:31:15.991Z,22.48
2022-07-25T05:32:15.881Z,22.48
2022-07-25T05:33:15.799Z,22.51
2022-07-25T05:34:15.724Z,22.51
2022-07-25T05:35:15.663Z,22.48
2022-07-25T05:36:15.582Z,22.59
2022-07-25T05:37:15.511Z,22.65
2022-07-25T05:38:15.431Z,22.68
2022-07-25T05:39:15.363Z,22.59
2022-07-25T05:40:15.281Z,22.73
2022-07-25T05:41:15.211Z,22.72
2022-07-25T05:42:15.252Z,22.70
2022-07-25T05:43:15.070Z,22.70
2022-07-25T05:44:14.987Z,22.81
2022-07-25T05:45:14.917Z,22.76
2022-07-25T05:46:14.920Z,22.78
2022-07-25T05:47:14.769Z,22.78
2022-07-25T05:48:14.694Z,22.87
2022-07-25T05:49:14.678Z,22.84
2022-07-25T05:50:14.548Z,22.88
2022-07-25T05:51:14.470Z,22.94
2022-07-25T05:52:14.397Z,22.96
2022-07-25T05:53:14.327Z,22.96
2022-07-25T05:54:14.250Z,22.99
2022-07-25T05:55:14.181Z,22.96
2022-07-25T05:56:14.106Z,23.05
2022-07-25T05:57:14.040Z,23.15
2022-07-25T05:58:13.959Z,23.09
2022-07-25T05:59:13.882Z,23.17
2022-07-25T06:00:13.813Z,23.18
2022-07-25T06:01:13.740Z,23.17
2022-07-25T06:02:13.751Z,23.24
2022-07-25T06:03:13.668Z,23.25
2022-07-25T06:04:13.519Z,23.32
2022-07-25T06:05:13.444Z,23.36
2022-07-25T06:06:13.366Z,23.40
2022-07-25T06:07:16.778Z,23.37
2022-07-25T06:08:13.241Z,23.40
2022-07-25T06:09:13.153Z,23.46
2022-07-25T06:10:13.074Z,23.50
2022-07-25T06:11:13.006Z,23.47
2022-07-25T06:12:12.931Z,23.51
2022-07-25T06:13:12.857Z,23.58
2022-07-25T06:14:12.783Z,23.63
2022-07-25T06:15:22.536Z,23.62
2022-07-25T06:16:12.701Z,23.65
2022-07-25T06:17:12.567Z,23.68
2022-07-25T06:18:12.490Z,23.66
2022-07-25T06:19:12.419Z,23.71
2022-07-25T06:20:12.340Z,23.78
2022-07-25T06:21:12.274Z,23.78
2022-07-25T06:22:12.205Z,23.77
2022-07-25T06:23:12.128Z,23.88
2022-07-25T06:24:12.053Z,23.88
2022-07-25T06:25:11.987Z,23.84
2022-07-25T06:26:11.906Z,23.92
2022-07-25T06:27:12.003Z,24.02
2022-07-25T06:28:11.757Z,23.95
2022-07-25T06:29:11.691Z,23.98
2022-07-25T06:30:19.849Z,24.06
2022-07-25T06:31:11.597Z,24.06
2022-07-25T06:32:11.467Z,24.13
2022-07-25T06:33:11.393Z,24.20
2022-07-25T06:34:11.487Z,24.21
2022-07-25T06:35:11.252Z,24.24
2022-07-25T06:36:11.182Z,24.30
2022-07-25T06:37:11.102Z,24.36
2022-07-25T06:38:11.025Z,24.38
2022-07-25T06:39:10.957Z,24.38
2022-07-25T06:40:10.884Z,24.39
2022-07-25T06:41:10.805Z,24.55
2022-07-25T06:42:10.734Z,24.51
2022-07-25T06:43:10.675Z,24.54
2022-07-25T06:44:10.594Z,24.58
2022-07-25T06:45:10.526Z,24.66
2022-07-25T06:46:10.499Z,24.68
2022-07-25T06:47:10.486Z,24.74
2022-07-25T06:48:10.297Z,24.65
2022-07-25T06:49:10.294Z,24.65
2022-07-25T06:50:11.226Z,24.69
2022-07-25T06:51:10.079Z,24.78
2022-07-25T06:52:10.003Z,24.77
2022-07-25T06:53:09.941Z,24.81
2022-07-25T06:54:10.161Z,24.84
2022-07-25T06:55:09.789Z,24.86
2022-07-25T06:56:12.187Z,24.89
2022-07-25T06:57:09.651Z,24.89
2022-07-25T06:58:09.573Z,24.93
2022-07-25T06:59:09.499Z,24.95
2022-07-25T07:00:09.429Z,24.96
2022-07-25T07:01:09.481Z,24.96
2022-07-25T07:02:09.283Z,25.08
2022-07-25T07:03:09.262Z,25.04
2022-07-25T07:04:09.639Z,25.10
2022-07-25T07:05:09.069Z,25.08
2022-07-25T07:06:08.987Z,25.10
2022-07-25T07:07:08.916Z,25.11
2022-07-25T07:08:08.844Z,25.13
2022-07-25T07:09:08.775Z,25.16
2022-07-25T07:10:08.697Z,25.25
2022-07-25T07:11:08.621Z,25.23
2022-07-25T07:12:08.553Z,25.29
2022-07-25T07:13:08.487Z,25.26
2022-07-25T07:14:08.751Z,25.41
2022-07-25T07:15:08.333Z,25.35
2022-07-25T07:16:08.311Z,25.35
2022-07-25T07:17:08.215Z,25.33
2022-07-25T07:18:08.114Z,25.31
2022-07-25T07:19:08.338Z,25.38
2022-07-25T07:20:07.977Z,25.35
2022-07-25T07:21:07.905Z,25.47
2022-07-25T07:22:07.826Z,25.43
2022-07-25T07:23:07.757Z,25.46
2022-07-25T07:24:23.343Z,25.35
2022-07-25T07:25:07.605Z,25.47
2022-07-25T07:26:07.540Z,25.41
2022-07-25T07:27:07.462Z,25.46
2022-07-25T07:28:07.390Z,25.50
2022-07-25T07:29:07.533Z,25.60
2022-07-25T07:30:07.247Z,25.63
2022-07-25T07:31:16.134Z,25.63
2022-07-25T07:32:07.217Z,25.63
2022-07-25T07:33:07.029Z,25.72
2022-07-25T07:34:06.957Z,25.63
2022-07-25T07:35:06.886Z,25.75
2022-07-25T07:36:06.815Z,25.75
2022-07-25T07:37:06.735Z,25.78
2022-07-25T07:38:06.665Z,25.81
2022-07-25T07:39:07.042Z,25.80
2022-07-25T07:40:06.519Z,25.81
2022-07-25T07:41:06.446Z,25.81
2022-07-25T07:42:06.375Z,25.85
2022-07-25T07:43:06.306Z,25.85
2022-07-25T07:44:06.231Z,25.85
2022-07-25T07:45:06.160Z,25.95
2022-07-25T07:46:06.153Z,25.96
2022-07-25T07:47:06.113Z,25.93
2022-07-25T07:48:05.943Z,25.96
2022-07-25T07:49:06.037Z,26.02
2022-07-25T07:50:05.806Z,25.99
2022-07-25T07:51:05.726Z,26.06
2022-07-25T07:52:05.662Z,25.98
2022-07-25T07:53:05.579Z,26.02
2022-07-25T07:54:05.510Z,26.06
2022-07-25T07:55:05.434Z,26.05
2022-07-25T07:56:05.379Z,26.07
2022-07-25T07:57:05.294Z,26.02
2022-07-25T07:58:05.220Z,26.22
2022-07-25T07:59:05.593Z,26.25
2022-07-25T08:00:05.076Z,26.25
2022-07-25T08:01:05.003Z,26.25
2022-07-25T08:02:05.047Z,26.26
2022-07-25T08:03:04.910Z,26.28
2022-07-25T08:04:04.789Z,26.28
2022-07-25T08:05:04.723Z,26.25
2022-07-25T08:06:04.643Z,26.26
2022-07-25T08:07:04.573Z,26.26
2022-07-25T08:08:04.496Z,26.36
2022-07-25T08:09:04.722Z,26.36
2022-07-25T08:10:04.358Z,26.41
2022-07-25T08:11:04.283Z,26.53
2022-07-25T08:12:04.222Z,26.44
2022-07-25T08:13:04.140Z,26.48
2022-07-25T08:14:04.561Z,26.52
2022-07-25T08:15:03.997Z,26.62
2022-07-25T08:16:04.109Z,26.52
2022-07-25T08:17:03.852Z,26.55
2022-07-25T08:18:03.777Z,26.56
2022-07-25T08:19:03.713Z,26.71
2022-07-25T08:20:20.944Z,26.63
2022-07-25T08:21:03.562Z,26.58
2022-07-25T08:22:03.494Z,26.73
2022-07-25T08:23:03.423Z,26.68
2022-07-25T08:24:03.614Z,26.73
2022-07-25T08:25:03.271Z,26.80
2022-07-25T08:26:03.202Z,26.84
2022-07-25T08:27:03.136Z,26.89
2022-07-25T08:28:03.060Z,26.89
2022-07-25T08:29:18.126Z,26.95
2022-07-25T08:30:02.921Z,26.95
2022-07-25T08:31:02.918Z,26.99
2022-07-25T08:32:02.821Z,27.00
2022-07-25T08:33:02.704Z,27.02
2022-07-25T08:34:02.641Z,27.08
2022-07-25T08:35:02.558Z,27.15
2022-07-25T08:36:02.487Z,27.18
2022-07-25T08:37:02.419Z,27.21
2022-07-25T08:38:02.348Z,27.22
2022-07-25T08:39:02.270Z,27.26
2022-07-25T08:40:02.199Z,27.29
2022-07-25T08:41:02.129Z,27.29
2022-07-25T08:42:02.058Z,27.32
2022-07-25T08:43:01.985Z,27.36
2022-07-25T08:44:01.911Z,27.36
2022-07-25T08:45:01.844Z,27.44
2022-07-25T08:46:01.840Z,27.40
2022-07-25T08:47:01.736Z,27.47
2022-07-25T08:48:01.628Z,27.47
2022-07-25T08:49:01.619Z,27.51
2022-07-25T08:50:04.469Z,27.60
2022-07-25T08:51:01.414Z,27.60
2022-07-25T08:52:01.353Z,27.63
2022-07-25T08:53:30.238Z,27.77
2022-07-25T08:54:01.201Z,27.64
2022-07-25T08:55:01.127Z,27.70
2022-07-25T08:56:01.888Z,27.67
2022-07-25T08:57:00.987Z,27.74
2022-07-25T08:58:00.917Z,27.75
2022-07-25T08:59:00.841Z,27.87
2022-07-25T09:00:00.772Z,27.80
2022-07-25T09:01:00.702Z,27.80
2022-07-25T09:02:00.673Z,27.83
2022-07-25T09:03:00.650Z,27.90
2022-07-25T09:04:00.483Z,27.90
2022-07-25T09:05:00.419Z,27.96
2022-07-25T09:06:00.345Z,27.90
2022-07-25T09:07:02.074Z,27.95
2022-07-25T09:08:00.196Z,27.98
2022-07-25T09:09:00.127Z,28.05
2022-07-25T09:10:00.068Z,28.12
2022-07-25T09:10:59.994Z,28.17
2022-07-25T09:11:59.918Z,28.17
2022-07-25T09:12:59.847Z,28.23
2022-07-25T09:13:59.787Z,28.20
2022-07-25T09:14:59.703Z,28.25
2022-07-25T09:15:59.711Z,28.29
2022-07-25T09:16:59.563Z,28.26
2022-07-25T09:17:59.490Z,28.37
2022-07-25T09:18:59.421Z,28.37
2022-07-25T09:19:59.365Z,28.48
2022-07-25T09:20:59.274Z,28.49
2022-07-25T09:21:59.603Z,28.60
2022-07-25T09:22:59.139Z,28.49
2022-07-25T09:23:59.064Z,28.51
2022-07-25T09:24:58.996Z,28.64
2022-07-25T09:25:58.918Z,28.75
2022-07-25T09:26:58.846Z,28.60
2022-07-25T09:27:58.785Z,28.72
2022-07-25T09:28:58.708Z,28.72
2022-07-25T09:29:58.639Z,28.72
2022-07-25T09:30:58.604Z,28.66
2022-07-25T09:31:58.501Z,28.76
2022-07-25T09:32:58.430Z,28.74
2022-07-25T09:33:58.364Z,28.82
2022-07-25T09:34:58.283Z,28.84
2022-07-25T09:35:58.213Z,28.82
2022-07-25T09:36:58.146Z,28.86
2022-07-25T09:37:58.068Z,28.85
2022-07-25T09:38:58.002Z,28.88
2022-07-25T09:39:57.934Z,28.89
2022-07-25T09:40:57.859Z,28.97
2022-07-25T09:41:57.787Z,28.96
2022-07-25T09:42:57.718Z,28.97
2022-07-25T09:43:57.644Z,29.05
2022-07-25T09:44:57.586Z,28.98
2022-07-25T09:45:57.551Z,29.07
2022-07-25T09:46:57.432Z,29.10
2022-07-25T09:47:57.365Z,29.14
2022-07-25T09:48:57.339Z,29.31
2022-07-25T09:49:57.230Z,29.32
2022-07-25T09:50:57.152Z,29.34
2022-07-25T09:51:57.081Z,29.54
2022-07-25T09:52:57.027Z,29.45
2022-07-25T09:53:56.948Z,29.50
2022-07-25T09:54:56.870Z,29.47
2022-07-25T09:55:56.801Z,29.47
2022-07-25T09:56:56.730Z,29.44
2022-07-25T09:57:56.660Z,29.53
2022-07-25T09:58:56.586Z,29.47
2022-07-25T09:59:56.514Z,29.49
2022-07-25T10:00:56.446Z,29.47
2022-07-25T10:01:56.415Z,29.56
2022-07-25T10:02:56.367Z,29.57
2022-07-25T10:03:56.233Z,29.72
2022-07-25T10:04:56.167Z,29.71
2022-07-25T10:05:56.098Z,29.66
2022-07-25T10:06:56.026Z,29.72
2022-07-25T10:07:55.954Z,29.73
2022-07-25T10:08:55.885Z,29.75
2022-07-25T10:09:55.818Z,29.78
2022-07-25T10:10:55.744Z,29.81
2022-07-25T10:11:55.677Z,29.73
2022-07-25T10:12:55.611Z,29.81
2022-07-25T10:13:55.534Z,29.78
2022-07-25T10:14:55.461Z,29.87
2022-07-25T10:15:55.387Z,29.95
2022-07-25T10:16:55.358Z,29.93
2022-07-25T10:17:55.251Z,30.05
2022-07-25T10:18:55.180Z,30.10
2022-07-25T10:19:58.668Z,30.06
2022-07-25T10:20:55.040Z,30.16
2022-07-25T10:21:54.970Z,30.19
2022-07-25T10:22:56.762Z,30.16
2022-07-25T10:23:54.830Z,30.13
2022-07-25T10:24:54.762Z,30.18
2022-07-25T10:25:54.693Z,30.34
2022-07-25T10:26:54.622Z,30.31
2022-07-25T10:27:54.551Z,30.35
2022-07-25T10:28:54.485Z,30.40
2022-07-25T10:29:54.410Z,30.44
2022-07-25T10:30:54.404Z,30.59
2022-07-25T10:31:54.276Z,30.62
2022-07-25T10:32:54.200Z,30.59
2022-07-25T10:33:54.130Z,30.57
2022-07-25T10:34:54.064Z,30.62
2022-07-25T10:35:53.994Z,30.59
2022-07-25T10:36:53.928Z,30.66
2022-07-25T10:37:53.854Z,30.65
2022-07-25T10:38:53.784Z,30.69
2022-07-25T10:39:53.709Z,30.77
2022-07-25T10:40:53.644Z,30.78
2022-07-25T10:41:53.580Z,30.81
2022-07-25T10:42:53.507Z,30.87
2022-07-25T10:43:53.429Z,30.90
2022-07-25T10:44:53.364Z,31.00
2022-07-25T10:45:53.365Z,31.03
2022-07-25T10:46:53.225Z,30.90
2022-07-25T10:47:53.154Z,31.10
2022-07-25T10:48:53.142Z,31.06
2022-07-25T10:50:13.975Z,31.14
2022-07-25T10:50:55.983Z,31.24
2022-07-25T10:51:52.879Z,31.22
2022-07-25T10:52:52.806Z,31.27
2022-07-25T10:53:52.737Z,31.36
2022-07-25T10:54:52.670Z,31.49
2022-07-25T10:56:05.401Z,31.49
2022-07-25T10:56:52.528Z,31.44
2022-07-25T10:58:16.118Z,31.58
2022-07-25T10:58:52.387Z,31.54
2022-07-25T10:59:52.321Z,31.61
2022-07-25T11:00:52.274Z,31.65
2022-07-25T11:01:52.196Z,31.70
2022-07-25T11:02:52.169Z,31.71
2022-07-25T11:03:52.047Z,31.77
2022-07-25T11:04:51.975Z,31.85
2022-07-25T11:05:51.903Z,31.87
2022-07-25T11:06:51.837Z,31.85
2022-07-25T11:08:18.978Z,31.97
2022-07-25T11:08:51.699Z,32.01
2022-07-25T11:09:51.624Z,32.03
2022-07-25T11:10:51.560Z,32.12
2022-07-25T11:11:51.514Z,32.18
2022-07-25T11:12:51.422Z,32.15
2022-07-25T11:13:51.352Z,32.26
2022-07-25T11:14:51.284Z,32.31
2022-07-25T11:15:51.216Z,32.16
2022-07-25T11:16:51.221Z,32.29
2022-07-25T11:17:51.077Z,32.38
2022-07-25T11:18:51.006Z,32.30
2022-07-25T11:19:50.935Z,32.33
2022-07-25T11:20:50.874Z,32.40
2022-07-25T11:21:50.801Z,32.40
2022-07-25T11:22:50.726Z,32.49
2022-07-25T11:23:50.659Z,32.48
2022-07-25T11:24:50.597Z,32.60
2022-07-25T11:25:50.527Z,32.70
2022-07-25T11:26:50.457Z,32.53
2022-07-25T11:27:50.418Z,32.64
2022-07-25T11:28:50.326Z,32.73
2022-07-25T11:29:50.250Z,32.77
2022-07-25T11:30:50.177Z,32.75
2022-07-25T11:31:50.171Z,32.80
2022-07-25T11:32:50.045Z,32.82
2022-07-25T11:33:49.968Z,32.80
2022-07-25T11:34:50.478Z,32.67
2022-07-25T11:35:49.837Z,32.73
2022-07-25T11:36:49.769Z,32.73
2022-07-25T11:37:49.697Z,32.82
2022-07-25T11:38:49.635Z,32.85
2022-07-25T11:39:49.562Z,32.89
2022-07-25T11:40:49.497Z,32.89
2022-07-25T11:41:49.430Z,32.97
2022-07-25T11:42:49.371Z,33.00
2022-07-25T11:43:49.285Z,33.00
2022-07-25T11:44:49.219Z,33.15
2022-07-25T11:45:49.189Z,33.17
2022-07-25T11:46:49.081Z,33.19
2022-07-25T11:47:49.013Z,33.28
2022-07-25T11:48:48.993Z,33.34
2022-07-25T11:49:48.876Z,33.30
2022-07-25T11:50:48.809Z,33.28
2022-07-25T11:51:48.747Z,33.32
2022-07-25T11:52:48.677Z,33.40
2022-07-25T11:53:48.607Z,33.40
2022-07-25T11:54:48.541Z,33.57
2022-07-25T11:55:48.471Z,33.62
2022-07-25T11:56:48.401Z,33.69
2022-07-25T11:57:48.329Z,33.74
2022-07-25T11:58:48.262Z,33.81
2022-07-25T11:59:48.195Z,33.80
2022-07-25T12:00:48.145Z,33.84
2022-07-25T12:01:48.117Z,33.87
2022-07-25T12:02:48.103Z,33.95
2022-07-25T12:03:47.943Z,33.95
2022-07-25T12:04:47.855Z,34.03
2022-07-25T12:05:47.812Z,33.96
2022-07-25T12:06:47.730Z,34.05
2022-07-25T12:07:47.654Z,34.13
2022-07-25T12:08:47.581Z,33.98
2022-07-25T12:09:47.517Z,34.08
2022-07-25T12:10:47.447Z,34.03
2022-07-25T12:11:47.390Z,34.03
2022-07-25T12:12:47.311Z,34.10
2022-07-25T12:13:47.244Z,34.13
2022-07-25T12:14:47.171Z,34.25
2022-07-25T12:15:47.110Z,34.35
2022-07-25T12:16:47.114Z,34.39
2022-07-25T12:17:46.976Z,34.45
2022-07-25T12:18:46.904Z,34.58
2022-07-25T12:19:46.837Z,34.60
2022-07-25T12:20:46.780Z,34.71
2022-07-25T12:21:46.699Z,34.75
2022-07-25T12:22:46.630Z,34.78
2022-07-25T12:23:46.566Z,34.86
2022-07-25T12:24:46.499Z,34.95
2022-07-25T12:25:46.435Z,34.95
2022-07-25T12:26:46.360Z,34.97
2022-07-25T12:27:46.315Z,35.05
2022-07-25T12:28:46.228Z,35.07
2022-07-25T12:29:46.159Z,35.04
2022-07-25T12:30:46.238Z,35.08
2022-07-25T12:31:46.030Z,35.17
2022-07-25T12:32:45.976Z,35.23
2022-07-25T12:33:45.887Z,35.24
2022-07-25T12:34:45.826Z,35.49
2022-07-25T12:35:45.753Z,35.33
2022-07-25T12:36:45.689Z,35.36
2022-07-25T12:37:45.623Z,35.46
2022-07-25T12:38:45.554Z,35.46
2022-07-25T12:39:45.488Z,35.48
2022-07-25T12:40:45.418Z,35.53
2022-07-25T12:41:45.375Z,35.56
2022-07-25T12:42:45.282Z,35.67
2022-07-25T12:43:45.214Z,35.76
2022-07-25T12:44:45.147Z,35.76
2022-07-25T12:45:45.164Z,35.82
2022-07-25T12:46:49.487Z,35.95
2022-07-25T12:47:44.953Z,35.95
2022-07-25T12:48:44.917Z,35.97
2022-07-25T12:49:44.813Z,36.07
2022-07-25T12:50:44.752Z,36.07
2022-07-25T12:51:44.684Z,36.04
2022-07-25T12:52:44.615Z,36.09
2022-07-25T12:53:45.405Z,36.25